首页
METAR-TAF:

METAR-TAF

机场 :

比塞大, 突尼斯

纬度: 37-15N, 经度: 009-48E, 海拔: 5米

当前天气观测

该预报发布于1小时和5分钟前的08:00 UTC
静风
温度 20°C
湿度 73%
气压 1020 hPa
能见度10公里或以上
少量云层高于2000英尺

METAR: DTTB 170800Z 00000KT 9999 FEW020 20/15 Q1020

时间: 10:05 (09:05 UTC)


TAF: 丢失

超过4000个机场的气象观测和天气预报(METAR&TAF报告)。

可查询的气象台以黄色和红色小点在地图上表示。

将鼠标移到小点上方,可查看气象台名称。

然后点击查看天气观测和预报。

如需切换地图:点击带黑十字的绿色按钮放大地图;点击带横线的绿色按钮缩小地图;或者点击绿色箭头查看邻近地区的地图。


METAR-TAF: